Time,TemperatureF,DewpointF,PressureIn,WindDirection,WindDirectionDegrees,WindSpeedMPH,WindSpeedGustMPH,Humidity,HourlyPrecipIn,Conditions,Clouds,dailyrainin,SoftwareType,DateUTC
2013-07-31 00:12:00,82.0,76.0,30.11,East,98,3.0,7.0,83,-99.99,,,-99.99,,2013-07-31 04:12:00,
2013-07-31 00:42:00,82.0,76.0,30.11,East,99,4.0,7.0,81,-99.99,,,-99.99,,2013-07-31 04:42:00,
2013-07-31 01:32:00,82.0,76.0,30.10,ESE,121,5.0,9.0,82,-99.99,,,-99.99,,2013-07-31 05:32:00,
2013-07-31 01:42:00,82.0,76.0,30.10,ESE,116,4.0,7.0,82,-99.99,,,-99.99,,2013-07-31 05:42:00,
2013-07-31 02:02:00,82.0,75.0,30.10,SE,130,5.0,8.0,79,-99.99,,,-99.99,,2013-07-31 06:02:00,
2013-07-31 02:12:00,82.0,75.0,30.10,SE,130,5.0,8.0,79,-99.99,,,-99.99,,2013-07-31 06:12:00,
2013-07-31 02:22:00,81.0,74.0,30.09,SE,129,5.0,8.0,76,-99.99,,,-99.99,,2013-07-31 06:22:00,
2013-07-31 02:32:00,81.0,74.0,30.09,SE,129,5.0,8.0,76,-99.99,,,-99.99,,2013-07-31 06:32:00,
2013-07-31 02:43:00,81.0,74.0,30.08,SE,135,5.0,10.0,77,-99.99,,,-99.99,,2013-07-31 06:43:00,
2013-07-31 02:53:00,81.0,74.0,30.08,SE,142,4.0,6.0,78,-99.99,,,-99.99,,2013-07-31 06:53:00,
2013-07-31 03:02:00,81.0,74.0,30.08,SE,142,4.0,6.0,78,-99.99,,,-99.99,,2013-07-31 07:02:00,
2013-07-31 03:12:00,81.0,74.0,30.07,SE,131,4.0,8.0,79,-99.99,,,-99.99,,2013-07-31 07:12:00,
2013-07-31 03:22:00,81.0,74.0,30.07,SE,131,4.0,8.0,79,-99.99,,,-99.99,,2013-07-31 07:22:00,
2013-07-31 03:43:00,81.0,74.0,30.06,SE,128,4.0,7.0,78,-99.99,,,-99.99,,2013-07-31 07:43:00,
2013-07-31 04:12:00,81.0,74.0,30.05,ESE,117,2.0,5.0,79,-99.99,,,-99.99,,2013-07-31 08:12:00,
2013-07-31 04:22:00,81.0,74.0,30.05,ESE,117,2.0,5.0,79,-99.99,,,-99.99,,2013-07-31 08:22:00,
2013-07-31 04:32:00,81.0,74.0,30.05,ESE,117,2.0,5.0,79,-99.99,,,-99.99,,2013-07-31 08:32:00,
2013-07-31 04:42:00,81.0,75.0,30.05,ESE,102,2.0,6.0,80,-99.99,,,-99.99,,2013-07-31 08:42:00,
2013-07-31 04:53:00,81.0,75.0,30.05,ESE,102,2.0,6.0,80,-99.99,,,-99.99,,2013-07-31 08:53:00,
2013-07-31 05:02:00,81.0,74.0,30.04,ESE,105,3.0,6.0,80,-99.99,,,-99.99,,2013-07-31 09:02:00,
2013-07-31 05:12:00,81.0,74.0,30.04,ESE,105,3.0,6.0,80,-99.99,,,-99.99,,2013-07-31 09:12:00,
2013-07-31 05:22:00,81.0,75.0,30.04,ESE,118,4.0,8.0,79,-99.99,,,-99.99,,2013-07-31 09:22:00,
2013-07-31 05:32:00,81.0,75.0,30.04,ESE,118,4.0,8.0,79,-99.99,,,-99.99,,2013-07-31 09:32:00,
2013-07-31 05:43:00,82.0,75.0,30.04,SE,134,8.0,13.0,79,-99.99,,,-99.99,,2013-07-31 09:43:00,
2013-07-31 05:52:00,82.0,75.0,30.04,SE,134,8.0,13.0,79,-99.99,,,-99.99,,2013-07-31 09:52:00,
2013-07-31 06:12:00,81.0,74.0,30.04,SE,139,8.0,12.0,78,-99.99,,,-99.99,,2013-07-31 10:12:00,
2013-07-31 06:22:00,81.0,74.0,30.04,SE,139,8.0,12.0,78,-99.99,,,-99.99,,2013-07-31 10:22:00,
2013-07-31 06:44:00,81.0,74.0,30.05,SE,143,7.0,13.0,79,-99.99,,,-99.99,,2013-07-31 10:44:00,
2013-07-31 07:03:00,81.0,74.0,30.06,SE,140,6.0,10.0,79,-99.99,,,-99.99,,2013-07-31 11:03:00,
2013-07-31 07:12:00,81.0,74.0,30.06,SE,140,6.0,10.0,79,-99.99,,,-99.99,,2013-07-31 11:12:00,
2013-07-31 07:22:00,81.0,74.0,30.06,SE,137,6.0,11.0,79,-99.99,,,-99.99,,2013-07-31 11:22:00,
2013-07-31 07:33:00,81.0,74.0,30.06,SE,137,6.0,11.0,79,-99.99,,,-99.99,,2013-07-31 11:33:00,
2013-07-31 07:43:00,81.0,74.0,30.07,SE,130,6.0,10.0,79,-99.99,,,-99.99,,2013-07-31 11:43:00,
2013-07-31 08:12:00,82.0,74.0,30.08,SE,130,6.0,9.0,77,-99.99,,,-99.99,,2013-07-31 12:12:00,
2013-07-31 08:22:00,82.0,74.0,30.08,SE,130,6.0,9.0,77,-99.99,,,-99.99,,2013-07-31 12:22:00,
2013-07-31 08:33:00,82.0,74.0,30.08,SE,130,6.0,9.0,77,-99.99,,,-99.99,,2013-07-31 12:33:00,
2013-07-31 08:43:00,83.0,75.0,30.09,SE,129,6.0,10.0,76,-99.99,,,-99.99,,2013-07-31 12:43:00,
2013-07-31 08:53:00,83.0,75.0,30.09,SE,129,6.0,10.0,76,-99.99,,,-99.99,,2013-07-31 12:53:00,
2013-07-31 09:22:00,83.0,74.0,30.10,SE,129,7.0,11.0,74,-99.99,,,-99.99,,2013-07-31 13:22:00,
2013-07-31 09:33:00,83.0,74.0,30.10,SE,129,7.0,11.0,74,-99.99,,,-99.99,,2013-07-31 13:33:00,
2013-07-31 09:53:00,84.0,75.0,30.10,SE,127,7.0,14.0,73,-99.99,,,-99.99,,2013-07-31 13:53:00,
2013-07-31 10:13:00,84.0,75.0,30.11,ESE,122,6.0,13.0,73,-99.99,,,-99.99,,2013-07-31 14:13:00,
2013-07-31 10:43:00,84.0,75.0,30.11,ESE,123,7.0,13.0,74,-99.99,,,-99.99,,2013-07-31 14:43:00,
2013-07-31 11:02:00,84.0,75.0,30.11,ESE,123,7.0,12.0,74,-99.99,,,-99.99,,2013-07-31 15:02:00,
2013-07-31 11:22:00,85.0,75.0,30.11,SE,126,10.0,17.0,72,-99.99,,,-99.99,,2013-07-31 15:22:00,
2013-07-31 11:33:00,85.0,75.0,30.11,SE,126,10.0,17.0,72,-99.99,,,-99.99,,2013-07-31 15:33:00,
2013-07-31 11:43:00,84.0,74.0,30.11,SE,133,11.0,17.0,71,-99.99,,,-99.99,,2013-07-31 15:43:00,
2013-07-31 11:53:00,85.0,73.0,30.11,SE,136,11.0,17.0,68,-99.99,,,-99.99,,2013-07-31 15:53:00,
2013-07-31 12:02:00,85.0,73.0,30.11,SE,136,11.0,17.0,68,-99.99,,,-99.99,,2013-07-31 16:02:00,
2013-07-31 12:22:00,85.0,73.0,30.11,ESE,122,10.0,16.0,67,-99.99,,,-99.99,,2013-07-31 16:22:00,
2013-07-31 12:33:00,85.0,73.0,30.11,ESE,122,10.0,16.0,67,-99.99,,,-99.99,,2013-07-31 16:33:00,
2013-07-31 12:44:00,86.0,75.0,30.11,ESE,120,9.0,15.0,70,-99.99,,,-99.99,,2013-07-31 16:44:00,
2013-07-31 13:03:00,85.0,75.0,30.10,ESE,119,10.0,15.0,70,-99.99,,,-99.99,,2013-07-31 17:03:00,
2013-07-31 13:22:00,85.0,75.0,30.10,SE,134,10.0,17.0,71,-99.99,,,-99.99,,2013-07-31 17:22:00,
2013-07-31 13:33:00,85.0,75.0,30.10,SE,134,10.0,17.0,71,-99.99,,,-99.99,,2013-07-31 17:33:00,
2013-07-31 13:43:00,85.0,75.0,30.10,SE,126,10.0,18.0,71,-99.99,,,-99.99,,2013-07-31 17:43:00,
2013-07-31 13:53:00,85.0,75.0,30.10,SE,126,10.0,18.0,71,-99.99,,,-99.99,,2013-07-31 17:53:00,
2013-07-31 14:13:00,85.0,75.0,30.09,SE,131,11.0,17.0,70,-99.99,,,-99.99,,2013-07-31 18:13:00,
2013-07-31 14:23:00,85.0,74.0,30.09,SE,129,10.0,16.0,68,-99.99,,,-99.99,,2013-07-31 18:23:00,
2013-07-31 14:43:00,86.0,74.0,30.08,SE,132,10.0,15.0,68,-99.99,,,-99.99,,2013-07-31 18:43:00,
2013-07-31 14:52:00,86.0,74.0,30.08,SE,132,10.0,15.0,68,-99.99,,,-99.99,,2013-07-31 18:52:00,
2013-07-31 15:03:00,85.0,72.0,30.08,SE,144,11.0,17.0,64,-99.99,,,-99.99,,2013-07-31 19:03:00,
2013-07-31 15:12:00,85.0,72.0,30.08,SE,144,11.0,17.0,64,-99.99,,,-99.99,,2013-07-31 19:12:00,
2013-07-31 15:22:00,85.0,72.0,30.08,SE,132,10.0,17.0,64,-99.99,,,-99.99,,2013-07-31 19:22:00,
2013-07-31 15:33:00,85.0,72.0,30.08,SE,132,10.0,17.0,64,-99.99,,,-99.99,,2013-07-31 19:33:00,
2013-07-31 15:43:00,85.0,73.0,30.07,SE,126,10.0,16.0,66,-99.99,,,-99.99,,2013-07-31 19:43:00,
2013-07-31 15:53:00,85.0,73.0,30.06,SE,132,10.0,16.0,67,-99.99,,,-99.99,,2013-07-31 19:53:00,
2013-07-31 16:12:00,85.0,73.0,30.06,SE,131,10.0,15.0,66,-99.99,,,-99.99,,2013-07-31 20:12:00,
2013-07-31 16:23:00,85.0,74.0,30.05,SE,140,12.0,19.0,67,-99.99,,,-99.99,,2013-07-31 20:23:00,
2013-07-31 16:32:00,85.0,74.0,30.05,SE,140,12.0,19.0,67,-99.99,,,-99.99,,2013-07-31 20:32:00,
2013-07-31 16:43:00,85.0,72.0,30.03,SE,135,12.0,19.0,65,-99.99,,,-99.99,,2013-07-31 20:43:00,
2013-07-31 16:53:00,85.0,72.0,30.03,SE,135,12.0,19.0,65,-99.99,,,-99.99,,2013-07-31 20:53:00,
2013-07-31 17:02:00,85.0,73.0,30.03,SE,132,11.0,18.0,67,-99.99,,,-99.99,,2013-07-31 21:02:00,
2013-07-31 17:22:00,85.0,73.0,30.03,SE,134,13.0,18.0,66,-99.99,,,-99.99,,2013-07-31 21:22:00,
2013-07-31 17:32:00,85.0,73.0,30.03,SE,134,13.0,18.0,66,-99.99,,,-99.99,,2013-07-31 21:32:00,
2013-07-31 17:43:00,84.0,72.0,30.02,SE,139,14.0,19.0,66,-99.99,,,-99.99,,2013-07-31 21:43:00,
2013-07-31 17:53:00,84.0,72.0,30.02,SE,139,14.0,19.0,66,-99.99,,,-99.99,,2013-07-31 21:53:00,
2013-07-31 18:22:00,84.0,72.0,30.02,SE,134,12.0,18.0,67,-99.99,,,-99.99,,2013-07-31 22:22:00,
2013-07-31 18:33:00,84.0,72.0,30.02,SE,134,12.0,18.0,67,-99.99,,,-99.99,,2013-07-31 22:33:00,
2013-07-31 18:43:00,84.0,72.0,30.01,SE,134,11.0,18.0,68,-99.99,,,-99.99,,2013-07-31 22:43:00,
2013-07-31 19:02:00,84.0,73.0,30.01,SE,137,11.0,18.0,69,-99.99,,,-99.99,,2013-07-31 23:02:00,
2013-07-31 19:22:00,83.0,72.0,30.01,SE,141,11.0,18.0,70,-99.99,,,-99.99,,2013-07-31 23:22:00,
2013-07-31 19:32:00,83.0,72.0,30.01,SE,141,11.0,18.0,70,-99.99,,,-99.99,,2013-07-31 23:32:00,
2013-07-31 19:42:00,83.0,73.0,30.02,SE,139,9.0,14.0,71,-99.99,,,-99.99,,2013-07-31 23:42:00,
2013-07-31 19:53:00,82.0,72.0,30.03,SE,142,8.0,11.0,71,-99.99,,,-99.99,,2013-07-31 23:53:00,
2013-07-31 20:12:00,82.0,72.0,30.03,SE,136,8.0,13.0,72,-99.99,,,-99.99,,2013-08-01 00:12:00,
2013-07-31 20:22:00,82.0,72.0,30.03,SE,136,8.0,13.0,72,-99.99,,,-99.99,,2013-08-01 00:22:00,
2013-07-31 20:43:00,82.0,72.0,30.03,SE,134,8.0,12.0,72,-99.99,,,-99.99,,2013-08-01 00:43:00,
2013-07-31 20:52:00,82.0,72.0,30.03,SE,133,7.0,12.0,72,-99.99,,,-99.99,,2013-08-01 00:52:00,
2013-07-31 21:12:00,82.0,72.0,30.04,SE,132,8.0,13.0,70,-99.99,,,-99.99,,2013-08-01 01:12:00,
2013-07-31 21:22:00,82.0,72.0,30.04,SE,132,8.0,13.0,70,-99.99,,,-99.99,,2013-08-01 01:22:00,
2013-07-31 21:43:00,82.0,71.0,30.05,SE,134,8.0,13.0,69,-99.99,,,-99.99,,2013-08-01 01:43:00,
2013-07-31 21:53:00,82.0,71.0,30.05,SE,134,8.0,13.0,69,-99.99,,,-99.99,,2013-08-01 01:53:00,
2013-07-31 22:12:00,81.0,71.0,30.05,SE,136,9.0,15.0,69,-99.99,,,-99.99,,2013-08-01 02:12:00,
2013-07-31 22:22:00,81.0,71.0,30.05,SE,136,9.0,15.0,69,-99.99,,,-99.99,,2013-08-01 02:22:00,
2013-07-31 22:32:00,81.0,71.0,30.05,SE,136,9.0,15.0,69,-99.99,,,-99.99,,2013-08-01 02:32:00,
2013-07-31 22:43:00,81.0,71.0,30.05,SE,136,9.0,15.0,69,-99.99,,,-99.99,,2013-08-01 02:43:00,
2013-07-31 22:53:00,81.0,72.0,30.05,SE,137,7.0,12.0,72,-99.99,,,-99.99,,2013-08-01 02:53:00,
2013-07-31 23:02:00,81.0,72.0,30.06,SE,137,9.0,20.0,72,-99.99,,,-99.99,,2013-08-01 03:02:00,
2013-07-31 23:12:00,81.0,72.0,30.06,SE,137,9.0,20.0,72,-99.99,,,-99.99,,2013-08-01 03:12:00,
2013-07-31 23:43:00,81.0,71.0,30.06,SE,137,9.0,17.0,70,-99.99,,,-99.99,,2013-08-01 03:43:00,
2013-07-31 23:53:00,81.0,71.0,30.06,SE,137,9.0,17.0,70,-99.99,,,-99.99,,2013-08-01 03:53:00,